createdAt,value
2023-12-01T00:01:55.089Z,-0.13
2023-12-01T00:04:22.213Z,-0.17
2023-12-01T00:06:49.308Z,-0.19
2023-12-01T00:09:16.449Z,-0.17
2023-12-01T00:11:43.421Z,-0.15
2023-12-01T00:14:10.356Z,-0.13
2023-12-01T00:16:37.399Z,-0.10
2023-12-01T00:19:04.465Z,-0.10
2023-12-01T00:21:31.513Z,-0.08
2023-12-01T00:23:58.507Z,-0.07
2023-12-01T00:26:25.508Z,-0.06
2023-12-01T00:28:57.103Z,-0.06
2023-12-01T00:31:24.066Z,-0.05
2023-12-01T00:33:51.611Z,-0.03
2023-12-01T00:36:18.891Z,0.04
2023-12-01T00:38:46.154Z,0.10
2023-12-01T00:41:13.305Z,0.16
2023-12-01T00:43:40.238Z,0.20
2023-12-01T00:46:07.540Z,0.22
2023-12-01T00:48:34.929Z,0.23
2023-12-01T00:51:03.289Z,0.22
2023-12-01T00:53:30.739Z,0.19
2023-12-01T00:55:57.862Z,0.15
2023-12-01T00:58:25.716Z,0.13
2023-12-01T01:00:52.816Z,0.12
2023-12-01T01:03:20.014Z,0.14
2023-12-01T01:05:47.142Z,0.13
2023-12-01T01:08:14.611Z,0.17
2023-12-01T01:10:41.567Z,0.20
2023-12-01T01:13:08.547Z,0.20
2023-12-01T01:15:36.264Z,0.14
2023-12-01T01:18:03.333Z,0.09
2023-12-01T01:20:30.448Z,0.01
2023-12-01T01:22:57.372Z,-0.09
2023-12-01T01:25:24.298Z,-0.16
2023-12-01T01:27:51.478Z,-0.24
2023-12-01T01:30:18.347Z,-0.30
2023-12-01T01:32:45.193Z,-0.31
2023-12-01T01:35:12.100Z,-0.31
2023-12-01T01:37:39.660Z,-0.31
2023-12-01T01:40:08.443Z,-0.31
2023-12-01T01:42:35.341Z,-0.32
2023-12-01T01:45:02.250Z,-0.35
2023-12-01T01:47:29.377Z,-0.41
2023-12-01T01:49:56.688Z,-0.50
2023-12-01T01:52:24.188Z,-0.58
2023-12-01T01:54:51.418Z,-0.66
2023-12-01T01:57:18.901Z,-0.72
2023-12-01T01:59:45.992Z,-0.71
2023-12-01T02:02:13.192Z,-0.67
2023-12-01T02:04:40.471Z,-0.64
2023-12-01T02:07:09.744Z,-0.63
2023-12-01T02:09:36.761Z,-0.62
2023-12-01T02:12:04.239Z,-0.61
2023-12-01T02:14:31.144Z,-0.61
2023-12-01T02:16:58.244Z,-0.63
2023-12-01T02:19:25.580Z,-0.68
2023-12-01T02:21:52.917Z,-0.75
2023-12-01T02:24:20.002Z,-0.79
2023-12-01T02:26:46.937Z,-0.81
2023-12-01T02:29:14.485Z,-0.82
2023-12-01T02:31:41.414Z,-0.79
2023-12-01T02:34:08.497Z,-0.78
2023-12-01T02:36:35.484Z,-0.75
2023-12-01T02:39:03.954Z,-0.75
2023-12-01T02:41:30.874Z,-0.76
2023-12-01T02:43:57.819Z,-0.79
2023-12-01T02:46:25.015Z,-0.84
2023-12-01T02:48:52.451Z,-0.89
2023-12-01T02:51:19.591Z,-0.96
2023-12-01T02:53:47.074Z,-1.00
2023-12-01T02:58:58.768Z,-1.07
2023-12-01T03:01:25.746Z,-1.08
2023-12-01T03:03:53.191Z,-1.05
2023-12-01T03:06:20.688Z,-1.00
2023-12-01T03:08:47.566Z,-0.96
2023-12-01T03:11:14.693Z,-0.95
2023-12-01T03:13:41.569Z,-0.97
2023-12-01T03:16:08.932Z,-1.02
2023-12-01T03:18:36.904Z,-1.08
2023-12-01T03:21:03.953Z,-1.12
2023-12-01T03:23:30.853Z,-1.16
2023-12-01T03:25:57.689Z,-1.19
2023-12-01T03:28:24.633Z,-1.19
2023-12-01T03:30:51.502Z,-1.18
2023-12-01T03:33:18.317Z,-1.14
2023-12-01T03:35:45.231Z,-1.08
2023-12-01T03:38:12.127Z,-1.04
2023-12-01T03:40:40.749Z,-1.01
2023-12-01T03:43:08.285Z,-1.03
2023-12-01T03:45:35.302Z,-1.05
2023-12-01T03:48:02.431Z,-1.07
2023-12-01T03:50:30.011Z,-1.09
2023-12-01T03:52:57.755Z,-1.12
2023-12-01T03:55:24.694Z,-1.17
2023-12-01T03:57:51.653Z,-1.21
2023-12-01T04:00:23.149Z,-1.25
2023-12-01T04:02:50.784Z,-1.29
2023-12-01T04:05:21.673Z,-1.28
2023-12-01T04:07:52.959Z,-1.26
2023-12-01T04:10:21.826Z,-1.23
2023-12-01T04:12:49.269Z,-1.22
2023-12-01T04:15:19.324Z,-1.23
2023-12-01T04:17:48.260Z,-1.25
2023-12-01T04:20:27.757Z,-1.29
2023-12-01T04:22:59.989Z,-1.35
2023-12-01T04:25:28.415Z,-1.37
2023-12-01T04:27:56.981Z,-1.38
2023-12-01T04:30:24.856Z,-1.36
2023-12-01T04:32:56.087Z,-1.36
2023-12-01T04:35:26.539Z,-1.33
2023-12-01T04:37:53.901Z,-1.31
2023-12-01T04:40:20.756Z,-1.28
2023-12-01T04:42:50.536Z,-1.27
2023-12-01T04:45:20.543Z,-1.27
2023-12-01T04:47:52.998Z,-1.29
2023-12-01T04:50:23.200Z,-1.30
2023-12-01T04:52:51.968Z,-1.32
2023-12-01T04:55:19.466Z,-1.29
2023-12-01T04:57:47.658Z,-1.28
2023-12-01T05:00:24.149Z,-1.23
2023-12-01T05:02:53.608Z,-1.18
2023-12-01T05:05:22.162Z,-1.14
2023-12-01T05:07:52.445Z,-1.14
2023-12-01T05:10:21.689Z,-1.14
2023-12-01T05:12:50.968Z,-1.14
2023-12-01T05:15:20.258Z,-1.14
2023-12-01T05:17:50.271Z,-1.15
2023-12-01T05:20:18.603Z,-1.16
2023-12-01T05:22:48.821Z,-1.14
2023-12-01T05:25:17.197Z,-1.11
2023-12-01T05:27:46.923Z,-1.06
2023-12-01T05:30:15.418Z,-1.00
2023-12-01T05:32:43.815Z,-0.98
2023-12-01T05:35:12.311Z,-0.97
2023-12-01T05:37:40.822Z,-0.97
2023-12-01T05:40:10.802Z,-0.99
2023-12-01T05:42:38.371Z,-0.99
2023-12-01T05:45:07.011Z,-1.01
2023-12-01T05:47:33.967Z,-1.05
2023-12-01T05:50:00.850Z,-1.07
2023-12-01T05:52:27.703Z,-1.09
2023-12-01T05:54:54.616Z,-1.06
2023-12-01T05:57:21.443Z,-1.01
2023-12-01T05:59:50.107Z,-0.96
2023-12-01T06:02:17.087Z,-0.91
2023-12-01T06:04:44.108Z,-0.89
2023-12-01T06:07:11.116Z,-0.89
2023-12-01T06:09:38.017Z,-0.91
2023-12-01T06:12:05.166Z,-0.95
2023-12-01T06:14:32.734Z,-0.98
2023-12-01T06:16:59.580Z,-1.03
2023-12-01T06:19:27.477Z,-1.09
2023-12-01T06:21:54.649Z,-1.12
2023-12-01T06:24:22.662Z,-1.14
2023-12-01T06:26:49.694Z,-1.12
2023-12-01T06:29:17.550Z,-1.08
2023-12-01T06:31:44.565Z,-1.05
2023-12-01T06:34:11.620Z,-1.02
2023-12-01T06:36:38.466Z,-1.00
2023-12-01T06:39:11.710Z,-1.02
2023-12-01T06:41:39.120Z,-1.02
2023-12-01T06:44:06.952Z,-1.03
2023-12-01T06:46:34.258Z,-1.08
2023-12-01T06:49:01.324Z,-1.10
2023-12-01T06:51:28.227Z,-1.07
2023-12-01T06:53:57.401Z,-1.03
2023-12-01T06:56:24.859Z,-0.96
2023-12-01T06:58:51.897Z,-0.86
2023-12-01T07:01:20.155Z,-0.79
2023-12-01T07:03:47.319Z,-0.71
2023-12-01T07:06:15.200Z,-0.66
2023-12-01T07:08:42.137Z,-0.57
2023-12-01T07:11:09.113Z,-0.50
2023-12-01T07:13:36.317Z,-0.45
2023-12-01T07:16:11.913Z,-0.41
2023-12-01T07:18:39.810Z,-0.37
2023-12-01T07:21:07.794Z,-0.30
2023-12-01T07:23:36.112Z,-0.20
2023-12-01T07:26:03.219Z,-0.09
2023-12-01T07:28:30.838Z,0.01
2023-12-01T07:30:57.903Z,0.10
2023-12-01T07:33:24.817Z,0.17
2023-12-01T07:35:51.688Z,0.22
2023-12-01T07:38:18.906Z,0.25
2023-12-01T07:40:47.347Z,0.30
2023-12-01T07:43:14.338Z,0.36
2023-12-01T07:45:41.204Z,0.41
2023-12-01T07:48:11.182Z,0.50
2023-12-01T07:50:38.192Z,0.66
2023-12-01T07:53:06.343Z,0.81
2023-12-01T07:55:34.521Z,0.97
2023-12-01T07:58:01.455Z,1.14
2023-12-01T08:00:28.528Z,1.27
2023-12-01T08:02:56.631Z,1.40
2023-12-01T08:05:25.192Z,1.52
2023-12-01T08:07:55.480Z,1.62
2023-12-01T08:10:25.224Z,1.73
2023-12-01T08:12:59.024Z,1.82
2023-12-01T08:15:29.000Z,1.91
2023-12-01T08:17:58.034Z,2.00
2023-12-01T08:20:25.468Z,2.10
2023-12-01T08:22:52.474Z,2.18
2023-12-01T08:25:22.644Z,2.26
2023-12-01T08:27:50.093Z,2.37
2023-12-01T08:30:19.386Z,2.45
2023-12-01T08:32:49.675Z,2.55
2023-12-01T08:35:17.352Z,2.66
2023-12-01T08:37:44.840Z,2.81
2023-12-01T08:40:14.075Z,2.99
2023-12-01T08:42:42.365Z,3.15
2023-12-01T08:45:10.660Z,3.31
2023-12-01T08:47:38.887Z,3.45
2023-12-01T08:50:09.221Z,3.59
2023-12-01T08:52:38.541Z,3.74
2023-12-01T08:55:07.161Z,3.87
2023-12-01T08:57:34.860Z,3.94
2023-12-01T09:00:01.912Z,4.00
2023-12-01T09:02:28.969Z,4.07
2023-12-01T09:04:56.132Z,4.15
2023-12-01T09:07:23.089Z,4.25
2023-12-01T09:09:56.179Z,4.37
2023-12-01T09:12:24.082Z,4.41
2023-12-01T09:14:51.386Z,4.47
2023-12-01T09:17:18.467Z,4.53
2023-12-01T09:19:45.490Z,4.55
2023-12-01T09:22:12.502Z,4.55
2023-12-01T09:24:39.381Z,4.59
2023-12-01T09:27:06.463Z,4.69
2023-12-01T09:29:33.416Z,4.78
2023-12-01T09:32:00.360Z,4.86
2023-12-01T09:34:27.252Z,4.94
2023-12-01T09:36:54.124Z,5.02
2023-12-01T09:39:21.150Z,5.07
2023-12-01T09:41:48.224Z,5.11
2023-12-01T09:44:15.242Z,5.15
2023-12-01T09:46:44.463Z,5.18
2023-12-01T09:49:11.751Z,5.20
2023-12-01T09:51:38.824Z,5.20
2023-12-01T09:54:06.262Z,5.20
2023-12-01T09:56:33.534Z,5.20
2023-12-01T09:59:01.034Z,5.19
2023-12-01T10:01:29.208Z,5.17
2023-12-01T10:03:56.933Z,5.16
2023-12-01T10:06:25.231Z,5.21
2023-12-01T10:08:52.843Z,5.25
2023-12-01T10:11:22.210Z,5.28
2023-12-01T10:13:52.567Z,5.31
2023-12-01T10:16:21.146Z,5.36
2023-12-01T10:19:06.193Z,5.44
2023-12-01T10:21:51.430Z,5.54
2023-12-01T10:24:23.654Z,5.62
2023-12-01T10:26:53.420Z,5.63
2023-12-01T10:29:32.064Z,5.64
2023-12-01T10:32:04.060Z,5.68
2023-12-01T10:34:31.652Z,5.70
2023-12-01T10:36:59.150Z,5.71
2023-12-01T10:39:30.626Z,5.73
2023-12-01T10:42:02.608Z,5.76
2023-12-01T10:44:32.757Z,5.76
2023-12-01T10:47:00.624Z,5.77
2023-12-01T10:49:28.604Z,5.77
2023-12-01T10:51:57.828Z,5.78
2023-12-01T10:54:27.671Z,5.79
2023-12-01T10:56:57.443Z,5.80
2023-12-01T10:59:27.760Z,5.76
2023-12-01T11:01:56.568Z,5.74
2023-12-01T11:04:28.824Z,5.71
2023-12-01T11:07:00.258Z,5.69
2023-12-01T11:09:41.425Z,5.64
2023-12-01T11:12:18.800Z,5.59
2023-12-01T11:14:47.158Z,5.56
2023-12-01T11:17:19.362Z,5.52
2023-12-01T11:19:46.903Z,5.49
2023-12-01T11:22:33.817Z,5.45
2023-12-01T11:25:02.673Z,5.41
2023-12-01T11:27:32.891Z,5.37
2023-12-01T11:30:09.161Z,5.34
2023-12-01T11:32:45.870Z,5.28
2023-12-01T11:35:14.718Z,5.23
2023-12-01T11:37:57.496Z,5.18
2023-12-01T11:40:25.651Z,5.13
2023-12-01T11:42:57.283Z,5.07
2023-12-01T11:45:45.900Z,5.01
2023-12-01T11:48:13.559Z,4.95
2023-12-01T11:50:42.002Z,4.91
2023-12-01T11:53:14.784Z,4.88
2023-12-01T11:55:42.745Z,4.84
2023-12-01T11:58:09.579Z,4.79
2023-12-01T12:00:36.665Z,4.77
2023-12-01T12:03:19.877Z,4.72
2023-12-01T12:05:46.944Z,4.67
2023-12-01T12:08:13.857Z,4.63
2023-12-01T12:10:40.757Z,4.56
2023-12-01T12:13:13.169Z,4.52
2023-12-01T12:15:40.129Z,4.47
2023-12-01T12:18:07.391Z,4.44
2023-12-01T12:20:34.464Z,4.42
2023-12-01T12:23:02.087Z,4.39
2023-12-01T12:25:38.479Z,4.39
2023-12-01T12:28:13.630Z,4.42
2023-12-01T12:30:40.865Z,4.48
2023-12-01T12:33:08.133Z,4.53
2023-12-01T12:35:35.218Z,4.57
2023-12-01T12:38:03.586Z,4.60
2023-12-01T12:40:36.059Z,4.61
2023-12-01T12:43:07.269Z,4.59
2023-12-01T12:45:34.422Z,4.55
2023-12-01T12:48:11.535Z,4.52
2023-12-01T12:50:42.368Z,4.49
2023-12-01T12:53:09.441Z,4.45
2023-12-01T12:55:36.452Z,4.38
2023-12-01T12:58:03.440Z,4.27
2023-12-01T13:00:30.899Z,4.25
2023-12-01T13:02:57.799Z,4.17
2023-12-01T13:05:25.418Z,4.12
2023-12-01T13:07:52.946Z,4.07
2023-12-01T13:10:19.977Z,4.07
2023-12-01T13:12:46.816Z,4.07
2023-12-01T13:15:13.717Z,4.05
2023-12-01T13:17:40.545Z,4.03
2023-12-01T13:20:08.972Z,4.00
2023-12-01T13:22:35.897Z,3.98
2023-12-01T13:25:04.400Z,3.93
2023-12-01T13:27:33.253Z,3.86
2023-12-01T13:30:00.456Z,3.79
2023-12-01T13:32:27.525Z,3.71
2023-12-01T13:34:54.552Z,3.63
2023-12-01T13:37:22.541Z,3.61
2023-12-01T13:39:50.006Z,3.61
2023-12-01T13:42:17.175Z,3.56
2023-12-01T13:44:44.141Z,3.51
2023-12-01T13:47:11.020Z,3.47
2023-12-01T13:49:37.928Z,3.44
2023-12-01T13:52:05.168Z,3.42
2023-12-01T13:54:32.064Z,3.36
2023-12-01T13:56:59.021Z,3.33
2023-12-01T13:59:25.939Z,3.31
2023-12-01T14:01:52.950Z,3.28
2023-12-01T14:04:20.352Z,3.31
2023-12-01T14:06:48.233Z,3.30
2023-12-01T14:09:15.721Z,3.26
2023-12-01T14:11:42.702Z,3.24
2023-12-01T14:14:10.388Z,3.22
2023-12-01T14:16:37.351Z,3.16
2023-12-01T14:19:04.339Z,3.10
2023-12-01T14:21:31.293Z,3.04
2023-12-01T14:23:59.057Z,2.98
2023-12-01T14:26:26.114Z,2.95
2023-12-01T14:28:53.297Z,2.92
2023-12-01T14:31:20.221Z,2.88
2023-12-01T14:33:47.938Z,2.84
2023-12-01T14:36:15.912Z,2.79
2023-12-01T14:38:47.403Z,2.74
2023-12-01T14:41:18.367Z,2.67
2023-12-01T14:43:45.227Z,2.60
2023-12-01T14:46:13.013Z,2.57
2023-12-01T14:48:39.987Z,2.54
2023-12-01T14:51:07.293Z,2.51
2023-12-01T14:53:34.179Z,2.51
2023-12-01T14:56:01.668Z,2.52
2023-12-01T14:58:29.101Z,2.51
2023-12-01T15:00:55.925Z,2.48
2023-12-01T15:03:22.812Z,2.46
2023-12-01T15:05:49.894Z,2.41
2023-12-01T15:08:16.764Z,2.37
2023-12-01T15:10:43.593Z,2.34
2023-12-01T15:13:10.457Z,2.32
2023-12-01T15:15:37.357Z,2.29
2023-12-01T15:18:04.287Z,2.29
2023-12-01T15:20:31.293Z,2.27
2023-12-01T15:22:58.184Z,2.26
2023-12-01T15:25:25.919Z,2.23
2023-12-01T15:27:52.928Z,2.19
2023-12-01T15:30:19.970Z,2.16
2023-12-01T15:32:47.261Z,2.13
2023-12-01T15:35:15.139Z,2.13
2023-12-01T15:37:43.414Z,2.12
2023-12-01T15:40:14.574Z,2.13
2023-12-01T15:42:44.848Z,2.12
2023-12-01T15:45:12.550Z,2.10
2023-12-01T15:47:39.485Z,2.07
2023-12-01T15:50:07.018Z,2.07
2023-12-01T15:52:33.928Z,2.03
2023-12-01T15:55:00.785Z,2.00
2023-12-01T15:57:27.609Z,1.99
2023-12-01T15:59:54.509Z,1.98
2023-12-01T16:02:21.588Z,1.99
2023-12-01T16:04:49.313Z,2.00
2023-12-01T16:07:16.199Z,2.01
2023-12-01T16:09:43.748Z,2.00
2023-12-01T16:12:11.010Z,1.98
2023-12-01T16:14:37.878Z,1.95
2023-12-01T16:17:11.122Z,1.90
2023-12-01T16:19:40.466Z,1.88
2023-12-01T16:22:07.552Z,1.87
2023-12-01T16:24:38.881Z,1.88
2023-12-01T16:27:06.457Z,1.89
2023-12-01T16:29:33.409Z,1.90
2023-12-01T16:32:00.323Z,1.90
2023-12-01T16:34:27.174Z,1.88
2023-12-01T16:36:54.692Z,1.86
2023-12-01T16:39:22.790Z,1.83
2023-12-01T16:41:49.965Z,1.80
2023-12-01T16:44:17.931Z,1.79
2023-12-01T16:46:44.803Z,1.81
2023-12-01T16:49:11.896Z,1.83
2023-12-01T16:51:39.087Z,1.85
2023-12-01T16:54:06.105Z,1.85
2023-12-01T16:56:37.203Z,1.84
2023-12-01T16:59:04.111Z,1.81
2023-12-01T17:01:30.946Z,1.76
2023-12-01T17:03:58.964Z,1.71
2023-12-01T17:06:25.893Z,1.67
2023-12-01T17:08:52.903Z,1.69
2023-12-01T17:11:20.785Z,1.70
2023-12-01T17:13:49.631Z,1.68
2023-12-01T17:16:16.526Z,1.66
2023-12-01T17:18:43.659Z,1.63
2023-12-01T17:21:15.487Z,1.58
2023-12-01T17:23:42.944Z,1.55
2023-12-01T17:26:12.631Z,1.54
2023-12-01T17:28:40.674Z,1.55
2023-12-01T17:31:08.171Z,1.57
2023-12-01T17:33:35.094Z,1.58
2023-12-01T17:36:02.135Z,1.57
2023-12-01T17:38:29.198Z,1.56
2023-12-01T17:40:56.078Z,1.51
2023-12-01T17:43:23.472Z,1.49
2023-12-01T17:45:50.429Z,1.47
2023-12-01T17:48:17.425Z,1.48
2023-12-01T17:50:44.450Z,1.49
2023-12-01T17:53:11.339Z,1.50
2023-12-01T17:55:38.213Z,1.48
2023-12-01T17:58:05.316Z,1.45
2023-12-01T18:00:32.932Z,1.41
2023-12-01T18:02:59.914Z,1.40
2023-12-01T18:05:26.860Z,1.39
2023-12-01T18:07:53.919Z,1.40
2023-12-01T18:10:20.912Z,1.38
2023-12-01T18:12:47.812Z,1.37
2023-12-01T18:15:15.240Z,1.33
2023-12-01T18:17:44.211Z,1.29
2023-12-01T18:20:11.740Z,1.27
2023-12-01T18:22:38.600Z,1.27
2023-12-01T18:25:06.257Z,1.31
2023-12-01T18:27:33.256Z,1.34
2023-12-01T18:30:00.141Z,1.36
2023-12-01T18:32:27.227Z,1.36
2023-12-01T18:34:54.208Z,1.35
2023-12-01T18:37:21.086Z,1.33
2023-12-01T18:39:48.013Z,1.30
2023-12-01T18:42:15.090Z,1.30
2023-12-01T18:44:43.038Z,1.31
2023-12-01T18:47:10.190Z,1.31
2023-12-01T18:49:37.080Z,1.28
2023-12-01T18:52:04.094Z,1.24
2023-12-01T18:54:31.008Z,1.20
2023-12-01T18:56:57.919Z,1.14
2023-12-01T18:59:24.952Z,1.11
2023-12-01T19:01:52.006Z,1.09
2023-12-01T19:04:19.078Z,1.08
2023-12-01T19:06:45.956Z,1.07
2023-12-01T19:09:12.879Z,1.09
2023-12-01T19:11:41.194Z,1.10
2023-12-01T19:14:09.535Z,1.11
2023-12-01T19:16:36.462Z,1.11
2023-12-01T19:19:03.486Z,1.11
2023-12-01T19:21:30.441Z,1.08
2023-12-01T19:23:57.341Z,1.04
2023-12-01T19:26:24.573Z,1.02
2023-12-01T19:28:51.811Z,1.00
2023-12-01T19:31:18.736Z,1.00
2023-12-01T19:33:45.687Z,1.01
2023-12-01T19:36:14.075Z,1.02
2023-12-01T19:38:41.276Z,1.01
2023-12-01T19:41:08.527Z,0.96
2023-12-01T19:43:35.374Z,0.93
2023-12-01T19:46:05.261Z,0.95
2023-12-01T19:48:32.346Z,0.93
2023-12-01T19:50:59.487Z,0.94
2023-12-01T19:53:26.763Z,0.93
2023-12-01T19:55:55.942Z,0.92
2023-12-01T19:58:23.339Z,0.90
2023-12-01T20:00:50.218Z,0.89
2023-12-01T20:03:17.266Z,0.90
2023-12-01T20:05:45.359Z,0.91
2023-12-01T20:08:12.274Z,0.93
2023-12-01T20:10:40.253Z,0.96
2023-12-01T20:13:07.239Z,0.97
2023-12-01T20:15:34.386Z,0.97
2023-12-01T20:18:02.426Z,0.92
2023-12-01T20:20:29.564Z,0.91
2023-12-01T20:22:57.248Z,0.90
2023-12-01T20:25:24.420Z,0.93
2023-12-01T20:27:51.296Z,0.96
2023-12-01T20:30:18.316Z,0.98
2023-12-01T20:32:45.346Z,1.00
2023-12-01T20:35:12.369Z,1.00
2023-12-01T20:37:39.941Z,1.00
2023-12-01T20:40:07.491Z,0.98
2023-12-01T20:42:36.359Z,0.97
2023-12-01T20:45:03.597Z,0.96
2023-12-01T20:47:30.581Z,0.94
2023-12-01T20:49:57.626Z,0.95
2023-12-01T20:52:24.731Z,0.94
2023-12-01T20:54:51.622Z,0.93
2023-12-01T20:57:18.593Z,0.89
2023-12-01T20:59:45.526Z,0.88
2023-12-01T21:02:12.820Z,0.87
2023-12-01T21:04:39.746Z,0.87
2023-12-01T21:07:06.822Z,0.87
2023-12-01T21:09:33.752Z,0.87
2023-12-01T21:12:00.966Z,0.84
2023-12-01T21:14:27.859Z,0.81
2023-12-01T21:16:55.185Z,0.81
2023-12-01T21:19:22.127Z,0.81
2023-12-01T21:21:49.186Z,0.82
2023-12-01T21:24:16.164Z,0.84
2023-12-01T21:26:43.136Z,0.84
2023-12-01T21:29:09.963Z,0.84
2023-12-01T21:31:36.863Z,0.82
2023-12-01T21:34:04.041Z,0.79
2023-12-01T21:36:30.959Z,0.76
2023-12-01T21:38:57.907Z,0.75
2023-12-01T21:41:25.184Z,0.74
2023-12-01T21:43:52.569Z,0.74
2023-12-01T21:46:19.368Z,0.74
2023-12-01T21:48:46.470Z,0.73
2023-12-01T21:51:13.729Z,0.71
2023-12-01T21:53:41.201Z,0.70
2023-12-01T21:56:08.744Z,0.67
2023-12-01T21:58:35.610Z,0.67
2023-12-01T22:01:02.491Z,0.69
2023-12-01T22:03:29.443Z,0.71
2023-12-01T22:05:57.019Z,0.73
2023-12-01T22:08:24.448Z,0.72
2023-12-01T22:10:51.305Z,0.71
2023-12-01T22:13:18.129Z,0.68
2023-12-01T22:15:45.806Z,0.66
2023-12-01T22:18:12.915Z,0.67
2023-12-01T22:20:39.928Z,0.67
2023-12-01T22:23:06.816Z,0.69
2023-12-01T22:25:33.652Z,0.69
2023-12-01T22:28:00.571Z,0.67
2023-12-01T22:30:27.462Z,0.64
2023-12-01T22:32:56.110Z,0.63
2023-12-01T22:35:23.024Z,0.61
2023-12-01T22:37:51.250Z,0.61
2023-12-01T22:40:18.429Z,0.65
2023-12-01T22:42:45.596Z,0.66
2023-12-01T22:45:12.470Z,0.68
2023-12-01T22:47:39.378Z,0.68
2023-12-01T22:50:07.634Z,0.68
2023-12-01T22:52:34.708Z,0.67
2023-12-01T22:55:01.643Z,0.63
2023-12-01T22:57:28.580Z,0.60
2023-12-01T22:59:55.482Z,0.60
2023-12-01T23:02:22.460Z,0.62
2023-12-01T23:04:49.722Z,0.64
2023-12-01T23:07:16.669Z,0.66
2023-12-01T23:09:43.526Z,0.67
2023-12-01T23:12:10.692Z,0.68
2023-12-01T23:14:37.580Z,0.65
2023-12-01T23:17:04.578Z,0.64
2023-12-01T23:19:31.467Z,0.65
2023-12-01T23:21:58.550Z,0.68
2023-12-01T23:24:25.522Z,0.69
2023-12-01T23:26:52.465Z,0.67
2023-12-01T23:29:19.364Z,0.66
2023-12-01T23:31:46.369Z,0.65
2023-12-01T23:34:13.288Z,0.61
2023-12-01T23:36:40.136Z,0.59
2023-12-01T23:39:06.993Z,0.58
2023-12-01T23:41:34.211Z,0.57
2023-12-01T23:44:01.077Z,0.57
2023-12-01T23:46:27.887Z,0.55
2023-12-01T23:48:54.913Z,0.54
2023-12-01T23:51:22.508Z,0.50
2023-12-01T23:53:49.568Z,0.49
2023-12-01T23:56:16.424Z,0.48
2023-12-01T23:58:43.311Z,0.51
